Time;durP1;ratioP1;P1;durP2;ratioP2;P2;SDS_P1;SDS_P2;PMS_P1;PMS_P2;Temp;Humidity;BMP_temperature;BMP_pressure;BME280_temperature;BME280_humidity;BME280_pressure;Samples;Min_cycle;Max_cycle;Signal;HPM_P1;HPM_P2
2023/07/28 00:01:36;;;;;;;;;;;;;;;23.56;100.00;98833.48;105550;1259;60212;-60
2023/07/28 00:04:06;;;;;;;;;;;;;;;23.58;100.00;98836.85;104897;1260;73846;-61
2023/07/28 00:06:33;;;;;;;;;;;;;;;23.60;100.00;98843.34;104961;1263;66102;-66
2023/07/28 00:09:02;;;;;;;;;;;;;;;23.61;100.00;98848.85;104935;1260;73153;-62
2023/07/28 00:11:28;;;;;;;;;;;;;;;23.60;100.00;98849.73;105508;1259;61324;-60
2023/07/28 00:13:56;;;;;;;;;;;;;;;23.59;100.00;98847.89;105126;1259;61170;-60
2023/07/28 00:16:23;;;;;;;;;;;;;;;23.57;100.00;98844.63;104986;1263;74701;-60
2023/07/28 00:18:49;;;;;;;;;;;;;;;23.54;100.00;98849.59;105453;1260;67259;-66
2023/07/28 00:21:16;;;;;;;;;;;;;;;23.51;100.00;98857.34;105426;1260;73287;-60
2023/07/28 00:23:43;;;;;;;;;;;;;;;23.46;100.00;98854.45;104908;1263;61251;-60
2023/07/28 00:26:10;;;;;;;;;;;;;;;23.42;100.00;98844.72;104932;1259;61273;-60
2023/07/28 00:28:37;;;;;;;;;;;;;;;23.40;100.00;98845.30;104945;1259;75106;-61
2023/07/28 00:31:04;;;;;;;;;;;;;;;23.38;100.00;98842.53;105845;1260;66238;-60
2023/07/28 00:33:32;;;;;;;;;;;;;;;23.34;100.00;98832.77;105082;1260;72796;-61
2023/07/28 00:35:58;;;;;;;;;;;;;;;23.30;100.00;98850.95;104986;1264;62038;-60
2023/07/28 00:38:25;;;;;;;;;;;;;;;23.25;100.00;98847.12;104828;1259;61197;-59
2023/07/28 00:40:55;;;;;;;;;;;;;;;23.20;100.00;98831.88;104782;1263;74724;-62
2023/07/28 00:43:24;;;;;;;;;;;;;;;23.17;100.00;98856.03;104757;1263;67794;-67
2023/07/28 00:45:51;;;;;;;;;;;;;;;23.13;100.00;98856.45;104785;1263;72696;-61
2023/07/28 00:48:20;;;;;;;;;;;;;;;23.10;100.00;98865.13;104855;1260;61812;-62
2023/07/28 00:50:47;;;;;;;;;;;;;;;23.05;100.00;98869.19;104959;1261;61135;-61
2023/07/28 00:53:14;;;;;;;;;;;;;;;23.02;100.00;98886.27;104832;1259;75108;-60
2023/07/28 00:55:41;;;;;;;;;;;;;;;23.00;100.00;98884.47;105138;1260;67213;-61
2023/07/28 00:58:09;;;;;;;;;;;;;;;22.96;100.00;98887.42;104922;1260;72597;-61
2023/07/28 01:00:36;;;;;;;;;;;;;;;22.91;100.00;98884.06;105220;1260;61822;-61
2023/07/28 01:03:03;;;;;;;;;;;;;;;22.86;100.00;98878.58;105116;1260;61160;-69
2023/07/28 01:05:34;;;;;;;;;;;;;;;22.81;100.00;98878.09;105075;1260;73323;-68
2023/07/28 01:08:03;;;;;;;;;;;;;;;22.76;100.00;98880.05;104883;1259;67227;-63
2023/07/28 01:10:31;;;;;;;;;;;;;;;22.71;100.00;98877.27;104758;1265;71453;-63
2023/07/28 01:12:58;;;;;;;;;;;;;;;22.67;100.00;98877.03;105228;1260;61692;-60
2023/07/28 01:15:25;;;;;;;;;;;;;;;22.62;100.00;98882.17;105061;1260;62456;-64
2023/07/28 01:17:52;;;;;;;;;;;;;;;22.59;100.00;98872.94;105245;1259;74907;-60
2023/07/28 01:20:19;;;;;;;;;;;;;;;22.57;100.00;98859.40;104902;1260;67679;-60
2023/07/28 01:22:50;;;;;;;;;;;;;;;22.54;100.00;98845.85;104888;1265;71287;-67
2023/07/28 01:25:16;;;;;;;;;;;;;;;22.52;100.00;98842.32;104867;1260;62436;-62
2023/07/28 01:27:43;;;;;;;;;;;;;;;22.51;100.00;98837.78;105363;1263;61127;-63
2023/07/28 01:30:10;;;;;;;;;;;;;;;22.50;100.00;98834.30;104885;1259;73278;-64
2023/07/28 01:32:37;;;;;;;;;;;;;;;22.49;100.00;98834.53;105026;1265;66878;-66
2023/07/28 01:35:04;;;;;;;;;;;;;;;22.47;100.00;98836.86;105179;1263;71367;-60
2023/07/28 01:37:31;;;;;;;;;;;;;;;22.45;100.00;98830.30;104756;1259;61761;-67
2023/07/28 01:39:59;;;;;;;;;;;;;;;22.43;100.00;98834.66;104900;1259;61283;-61
2023/07/28 01:42:25;;;;;;;;;;;;;;;22.40;100.00;98832.70;105515;1263;74672;-67
2023/07/28 01:44:52;;;;;;;;;;;;;;;22.39;100.00;98830.95;105105;1259;66365;-60
2023/07/28 01:47:19;;;;;;;;;;;;;;;22.37;100.00;98835.66;105148;1263;72705;-62
2023/07/28 01:49:46;;;;;;;;;;;;;;;22.36;100.00;98845.30;105019;1260;61807;-66
2023/07/28 01:52:13;;;;;;;;;;;;;;;22.37;100.00;98841.09;105126;1260;61224;-61
2023/07/28 01:54:39;;;;;;;;;;;;;;;22.38;100.00;98836.01;105069;1265;72944;-61
2023/07/28 01:57:06;;;;;;;;;;;;;;;22.41;100.00;98824.39;105240;1259;67061;-63
2023/07/28 01:59:33;;;;;;;;;;;;;;;22.42;100.00;98827.91;104785;1265;71669;-60
2023/07/28 02:02:00;;;;;;;;;;;;;;;22.42;100.00;98829.14;105208;1260;61365;-67
2023/07/28 02:04:27;;;;;;;;;;;;;;;22.41;100.00;98829.45;104776;1265;61261;-63
2023/07/28 02:06:54;;;;;;;;;;;;;;;22.39;100.00;98837.17;105139;1259;74545;-61
2023/07/28 02:09:21;;;;;;;;;;;;;;;22.37;100.00;98844.16;104905;1260;67130;-62
2023/07/28 02:11:47;;;;;;;;;;;;;;;22.36;100.00;98839.69;104941;1260;72519;-65
2023/07/28 02:14:14;;;;;;;;;;;;;;;22.34;100.00;98841.71;104828;1264;63220;-62
2023/07/28 02:16:41;;;;;;;;;;;;;;;22.32;100.00;98840.86;104858;1260;61273;-61
2023/07/28 02:19:08;;;;;;;;;;;;;;;22.32;100.00;98852.18;104888;1259;74706;-61
2023/07/28 02:21:35;;;;;;;;;;;;;;;22.28;100.00;98855.96;105102;1260;67083;-61
2023/07/28 02:24:02;;;;;;;;;;;;;;;22.25;100.00;98862.60;105198;1260;72754;-62
2023/07/28 02:26:29;;;;;;;;;;;;;;;22.23;100.00;98872.63;105214;1262;62396;-61
2023/07/28 02:28:55;;;;;;;;;;;;;;;22.21;100.00;98874.93;105178;1259;61161;-62
2023/07/28 02:31:22;;;;;;;;;;;;;;;22.20;100.00;98889.23;104963;1262;74821;-61
2023/07/28 02:33:49;;;;;;;;;;;;;;;22.21;100.00;98897.61;105257;1257;67021;-61
2023/07/28 02:36:16;;;;;;;;;;;;;;;22.20;100.00;98893.16;104578;1264;72253;-62
2023/07/28 02:38:43;;;;;;;;;;;;;;;22.21;100.00;98894.84;104970;1258;61835;-62
2023/07/28 02:41:10;;;;;;;;;;;;;;;22.23;100.00;98900.02;104970;1257;61234;-61
2023/07/28 02:43:36;;;;;;;;;;;;;;;22.26;100.00;98906.27;105062;1259;74689;-62
2023/07/28 02:46:04;;;;;;;;;;;;;;;22.30;100.00;98899.57;105379;1259;67028;-67
2023/07/28 02:48:31;;;;;;;;;;;;;;;22.34;100.00;98894.73;104783;1262;73264;-61
2023/07/28 02:50:58;;;;;;;;;;;;;;;22.40;100.00;98894.08;104744;1260;212364;-61
2023/07/28 02:53:25;;;;;;;;;;;;;;;22.46;100.00;98878.40;104864;1265;61149;-62
2023/07/28 02:55:52;;;;;;;;;;;;;;;22.51;100.00;98863.33;105252;1265;74509;-68
2023/07/28 02:58:19;;;;;;;;;;;;;;;22.57;100.00;98852.98;105174;1260;65814;-61
2023/07/28 03:00:46;;;;;;;;;;;;;;;22.64;100.00;98857.98;105291;1259;71764;-61
2023/07/28 03:03:15;;;;;;;;;;;;;;;22.68;100.00;98864.39;104770;1260;61270;-61
2023/07/28 03:05:42;;;;;;;;;;;;;;;22.69;100.00;98860.00;104899;1265;61267;-62
2023/07/28 03:08:22;;;;;;;;;;;;;;;22.69;100.00;98859.46;104864;1265;75343;-62
2023/07/28 03:10:49;;;;;;;;;;;;;;;22.69;100.00;98864.68;106061;1260;67662;-62
2023/07/28 03:13:17;;;;;;;;;;;;;;;22.67;100.00;98872.32;104867;1259;72658;-62
2023/07/28 03:15:44;;;;;;;;;;;;;;;22.62;100.00;98875.71;105291;1264;61469;-66
2023/07/28 03:18:11;;;;;;;;;;;;;;;22.56;100.00;98878.52;104583;1264;61152;-61
2023/07/28 03:20:39;;;;;;;;;;;;;;;22.50;100.00;98891.13;105051;1259;75452;-61
2023/07/28 03:23:06;;;;;;;;;;;;;;;22.44;100.00;98906.05;105112;1260;65632;-63
2023/07/28 03:25:33;;;;;;;;;;;;;;;22.39;100.00;98910.66;105419;1259;71415;-66
2023/07/28 03:28:00;;;;;;;;;;;;;;;22.32;100.00;98919.05;104983;1262;61194;-61
2023/07/28 03:30:27;;;;;;;;;;;;;;;22.25;100.00;98921.11;105592;1259;61253;-62
2023/07/28 03:32:54;;;;;;;;;;;;;;;22.15;100.00;98939.89;104833;1260;73488;-61
2023/07/28 03:35:21;;;;;;;;;;;;;;;22.07;100.00;98957.94;104928;1260;66082;-68
2023/07/28 03:37:54;;;;;;;;;;;;;;;21.99;100.00;98957.39;104532;1263;71752;-63
2023/07/28 03:40:21;;;;;;;;;;;;;;;21.92;100.00;98957.50;104760;1260;61304;-62
2023/07/28 03:42:50;;;;;;;;;;;;;;;21.84;100.00;98966.05;105278;1265;61241;-62
2023/07/28 03:45:17;;;;;;;;;;;;;;;21.77;100.00;98957.05;105080;1260;74838;-67
2023/07/28 03:47:44;;;;;;;;;;;;;;;21.74;100.00;98930.77;104660;1260;68050;-62
2023/07/28 03:50:11;;;;;;;;;;;;;;;21.73;100.00;98919.16;104922;1260;72840;-61
2023/07/28 03:52:38;;;;;;;;;;;;;;;21.73;100.00;98917.56;104856;1258;62049;-61
2023/07/28 03:55:05;;;;;;;;;;;;;;;21.70;100.00;98918.00;105383;1260;61259;-64
2023/07/28 03:57:32;;;;;;;;;;;;;;;21.66;100.00;98917.69;104909;1262;75316;-62
2023/07/28 03:59:59;;;;;;;;;;;;;;;21.60;100.00;98907.48;104973;1262;67771;-61
2023/07/28 04:02:26;;;;;;;;;;;;;;;21.55;100.00;98889.06;104932;1260;72771;-61
2023/07/28 04:04:53;;;;;;;;;;;;;;;21.49;100.00;98878.21;105282;1260;61356;-61
2023/07/28 04:07:20;;;;;;;;;;;;;;;21.45;100.00;98880.88;105083;1265;61205;-66
2023/07/28 04:09:47;;;;;;;;;;;;;;;21.41;100.00;98880.30;105181;1262;75132;-66
2023/07/28 04:12:14;;;;;;;;;;;;;;;21.40;100.00;98872.88;105182;1260;66060;-62
2023/07/28 04:14:41;;;;;;;;;;;;;;;21.43;100.00;98870.48;104940;1260;72753;-64
2023/07/28 04:17:08;;;;;;;;;;;;;;;21.50;100.00;98867.66;105573;1262;61215;-62
2023/07/28 04:19:37;;;;;;;;;;;;;;;21.58;100.00;98861.70;105245;1259;61912;-60
2023/07/28 04:22:04;;;;;;;;;;;;;;;21.62;100.00;98851.44;105088;1258;75013;-61
2023/07/28 04:24:32;;;;;;;;;;;;;;;21.64;100.00;98858.00;105293;1260;67484;-60
2023/07/28 04:26:59;;;;;;;;;;;;;;;21.68;100.00;98861.48;105044;1261;71504;-61
2023/07/28 04:29:27;;;;;;;;;;;;;;;21.75;100.00;98854.53;105231;1260;61802;-61
2023/07/28 04:31:54;;;;;;;;;;;;;;;21.81;100.00;98850.94;104961;1260;63046;-66
2023/07/28 04:34:27;;;;;;;;;;;;;;;21.86;100.00;98859.42;105074;1260;74755;-60
2023/07/28 04:37:21;;;;;;;;;;;;;;;21.96;100.00;98863.66;104891;1260;65599;-64
2023/07/28 04:39:59;;;;;;;;;;;;;;;22.06;100.00;98840.62;104907;1260;72869;-61
2023/07/28 04:42:31;;;;;;;;;;;;;;;22.12;100.00;98811.11;104693;1265;61529;-67
2023/07/28 04:44:58;;;;;;;;;;;;;;;22.13;100.00;98791.27;104956;1264;61119;-62
2023/07/28 04:47:25;;;;;;;;;;;;;;;22.05;100.00;98810.11;104884;1259;74590;-61
2023/07/28 04:49:52;;;;;;;;;;;;;;;21.96;100.00;98872.80;104870;1260;67721;-62
2023/07/28 04:52:45;;;;;;;;;;;;;;;21.80;100.00;98985.59;105309;1259;72650;-62
2023/07/28 04:55:32;;;;;;;;;;;;;;;21.68;100.00;98986.52;104822;1260;61803;-61
2023/07/28 04:57:59;;;;;;;;;;;;;;;21.56;100.00;98951.41;104804;1260;61583;-63
2023/07/28 05:00:27;;;;;;;;;;;;;;;21.33;100.00;98934.48;104871;1265;74682;-59
2023/07/28 05:02:54;;;;;;;;;;;;;;;20.89;100.00;98928.19;104796;1264;65802;-59
2023/07/28 05:05:22;;;;;;;;;;;;;;;20.47;100.00;98924.71;104888;1260;71258;-59
2023/07/28 05:07:49;;;;;;;;;;;;;;;20.17;100.00;98938.80;105031;1260;62074;-66
2023/07/28 05:10:16;;;;;;;;;;;;;;;19.97;100.00;98950.08;104781;1260;61338;-63
2023/07/28 05:12:44;;;;;;;;;;;;;;;19.84;100.00;98955.55;104824;1260;75415;-60
2023/07/28 05:15:13;;;;;;;;;;;;;;;19.75;100.00;98939.65;104908;1260;65805;-59
2023/07/28 05:17:40;;;;;;;;;;;;;;;19.69;100.00;98916.48;105014;1260;71442;-74
2023/07/28 05:20:31;;;;;;;;;;;;;;;19.65;100.00;98900.89;104465;1261;61341;-59
2023/07/28 05:23:08;;;;;;;;;;;;;;;19.67;100.00;98878.73;104628;1264;61325;-72
2023/07/28 05:25:35;;;;;;;;;;;;;;;19.71;100.00;98844.39;104824;1260;74974;-62
2023/07/28 05:28:02;;;;;;;;;;;;;;;19.74;100.00;98818.39;104956;1262;66403;-75
2023/07/28 05:30:29;;;;;;;;;;;;;;;19.77;100.00;98833.34;105292;1259;71132;-60
2023/07/28 05:32:58;;;;;;;;;;;;;;;19.81;100.00;98865.45;104826;1265;61213;-59
2023/07/28 05:35:32;;;;;;;;;;;;;;;19.86;100.00;98900.59;104928;1260;61836;-61
2023/07/28 05:37:59;;;;;;;;;;;;;;;19.93;100.00;98918.15;104850;1259;73552;-79
2023/07/28 05:40:25;;;;;;;;;;;;;;;19.99;100.00;98914.52;104968;1259;67054;-59
2023/07/28 05:42:52;;;;;;;;;;;;;;;20.06;100.00;98907.67;104925;1263;72531;-58
2023/07/28 05:45:19;;;;;;;;;;;;;;;20.13;100.00;98908.39;105148;1260;61934;-78
2023/07/28 05:47:46;;;;;;;;;;;;;;;20.18;100.00;98931.80;104995;1262;61340;-70
2023/07/28 05:50:13;;;;;;;;;;;;;;;20.20;100.00;98950.62;105319;1260;75324;-61
2023/07/28 05:52:40;;;;;;;;;;;;;;;20.21;100.00;98980.88;104893;1265;65797;-62
2023/07/28 05:55:07;;;;;;;;;;;;;;;20.22;100.00;99011.23;105006;1260;72709;-60
2023/07/28 05:57:34;;;;;;;;;;;;;;;20.25;100.00;99041.33;104956;1265;61320;-69
2023/07/28 06:00:03;;;;;;;;;;;;;;;20.28;100.00;99084.66;105194;1262;61181;-65
2023/07/28 06:02:40;;;;;;;;;;;;;;;20.30;100.00;99094.64;104807;1260;73508;-64
2023/07/28 06:05:09;;;;;;;;;;;;;;;20.28;100.00;99045.23;105360;1265;65933;-57
2023/07/28 06:07:36;;;;;;;;;;;;;;;20.26;100.00;99017.19;104936;1260;73246;-58
2023/07/28 06:10:03;;;;;;;;;;;;;;;20.27;100.00;99020.36;104844;1260;62359;-61
2023/07/28 06:12:30;;;;;;;;;;;;;;;20.24;100.00;98999.33;104941;1262;61224;-61
2023/07/28 06:14:57;;;;;;;;;;;;;;;20.19;100.00;98982.15;105771;1264;74731;-58
2023/07/28 06:17:27;;;;;;;;;;;;;;;20.16;100.00;98980.13;105017;1263;66015;-58
2023/07/28 06:19:54;;;;;;;;;;;;;;;20.14;100.00;98970.29;104920;1262;71627;-67
2023/07/28 06:22:21;;;;;;;;;;;;;;;20.13;100.00;98967.39;104886;1265;61346;-58
2023/07/28 06:24:48;;;;;;;;;;;;;;;20.15;100.00;98981.71;104867;1258;61313;-60
2023/07/28 06:27:15;;;;;;;;;;;;;;;20.15;100.00;98984.37;104845;1265;74562;-59
2023/07/28 06:29:42;;;;;;;;;;;;;;;20.16;100.00;98996.04;105241;1262;65874;-75
2023/07/28 06:32:09;;;;;;;;;;;;;;;20.21;100.00;99007.77;104589;1260;73187;-58
2023/07/28 06:34:36;;;;;;;;;;;;;;;20.27;100.00;99006.11;105529;1259;62774;-60
2023/07/28 06:37:04;;;;;;;;;;;;;;;20.35;100.00;99007.11;105066;1260;61133;-60
2023/07/28 06:39:32;;;;;;;;;;;;;;;20.44;100.00;99011.92;104720;1259;74880;-59
2023/07/28 06:41:59;;;;;;;;;;;;;;;20.51;100.00;99008.75;105094;1261;66981;-76
2023/07/28 06:44:27;;;;;;;;;;;;;;;20.58;100.00;98993.92;105573;1263;73176;-60
2023/07/28 06:46:53;;;;;;;;;;;;;;;20.67;100.00;98986.48;104901;1259;62040;-62
2023/07/28 06:49:21;;;;;;;;;;;;;;;20.76;100.00;98974.83;104870;1264;61235;-58
2023/07/28 06:51:48;;;;;;;;;;;;;;;20.82;100.00;98962.70;105156;1262;74758;-72
2023/07/28 06:54:18;;;;;;;;;;;;;;;20.90;100.00;98954.50;105501;1265;67426;-58
2023/07/28 06:56:44;;;;;;;;;;;;;;;21.02;100.00;98946.89;104986;1260;72678;-58
2023/07/28 06:59:12;;;;;;;;;;;;;;;21.13;100.00;98951.52;104910;1262;61337;-60
2023/07/28 07:01:44;;;;;;;;;;;;;;;21.22;100.00;98945.84;104795;1262;61144;-59
2023/07/28 07:04:11;;;;;;;;;;;;;;;21.32;100.00;98955.57;105301;1258;73665;-63
2023/07/28 07:06:37;;;;;;;;;;;;;;;21.38;100.00;98977.15;104988;1260;66332;-59
2023/07/28 07:09:06;;;;;;;;;;;;;;;21.45;100.00;99006.86;105081;1260;72581;-59
2023/07/28 07:11:32;;;;;;;;;;;;;;;21.53;100.00;99027.16;104883;1262;61353;-59
2023/07/28 07:14:00;;;;;;;;;;;;;;;21.62;100.00;99029.66;104823;1260;61327;-71
2023/07/28 07:16:27;;;;;;;;;;;;;;;21.69;100.00;99026.21;104913;1260;72221;-60
2023/07/28 07:18:54;;;;;;;;;;;;;;;21.76;100.00;99041.13;104984;1262;66021;-60
2023/07/28 07:21:21;;;;;;;;;;;;;;;21.74;100.00;99052.98;104927;1260;72706;-59
2023/07/28 07:23:48;;;;;;;;;;;;;;;21.65;100.00;99039.02;104968;1261;61219;-67
2023/07/28 07:26:27;;;;;;;;;;;;;;;21.59;100.00;99024.92;105285;1258;61152;-58
2023/07/28 07:28:54;;;;;;;;;;;;;;;21.58;100.00;99034.42;105092;1260;73755;-59
2023/07/28 07:31:20;;;;;;;;;;;;;;;21.58;100.00;99063.64;104941;1262;66275;-59
2023/07/28 07:33:47;;;;;;;;;;;;;;;21.55;100.00;99084.21;105403;1262;71163;-62
2023/07/28 07:36:14;;;;;;;;;;;;;;;21.52;100.00;99098.56;105441;1258;62034;-59
2023/07/28 07:38:41;;;;;;;;;;;;;;;21.51;100.00;99120.89;104717;1260;61266;-59
2023/07/28 07:41:11;;;;;;;;;;;;;;;21.50;100.00;99131.13;104849;1259;73508;-58
2023/07/28 07:43:41;;;;;;;;;;;;;;;21.50;100.00;99137.34;104855;1260;67139;-59
2023/07/28 07:46:08;;;;;;;;;;;;;;;21.50;100.00;99142.91;104951;1258;73090;-59
2023/07/28 07:48:35;;;;;;;;;;;;;;;21.47;100.00;99145.33;105444;1259;62033;-58
2023/07/28 07:51:02;;;;;;;;;;;;;;;21.45;100.00;99144.57;105093;1262;61207;-60
2023/07/28 07:53:29;;;;;;;;;;;;;;;21.43;100.00;99138.48;104696;1262;74704;-60
2023/07/28 07:55:55;;;;;;;;;;;;;;;21.46;100.00;99117.66;105035;1260;66596;-66
2023/07/28 07:58:22;;;;;;;;;;;;;;;21.54;100.00;99096.21;104843;1260;71246;-70
2023/07/28 08:00:49;;;;;;;;;;;;;;;21.64;100.00;99105.59;105071;1260;62130;-57
2023/07/28 08:03:16;;;;;;;;;;;;;;;21.74;100.00;99098.82;104965;1260;61240;-58
2023/07/28 08:05:43;;;;;;;;;;;;;;;21.92;100.00;99083.69;104926;1259;73321;-71
2023/07/28 08:08:10;;;;;;;;;;;;;;;22.12;100.00;99064.20;104874;1262;66023;-58
2023/07/28 08:10:38;;;;;;;;;;;;;;;22.26;100.00;99047.14;105515;1260;73161;-71
2023/07/28 08:13:05;;;;;;;;;;;;;;;22.38;100.00;99035.27;104889;1259;62590;-58
2023/07/28 08:15:32;;;;;;;;;;;;;;;22.42;100.00;99036.56;104880;1260;61323;-60
2023/07/28 08:17:59;;;;;;;;;;;;;;;22.41;100.00;99025.96;106032;1262;74547;-67
2023/07/28 08:20:26;;;;;;;;;;;;;;;22.39;100.00;99024.35;105454;1259;66703;-74
2023/07/28 08:22:53;;;;;;;;;;;;;;;22.37;100.00;99018.00;104915;1260;71867;-59
2023/07/28 08:25:20;;;;;;;;;;;;;;;22.38;100.00;98998.72;105043;1262;61999;-60
2023/07/28 08:27:47;;;;;;;;;;;;;;;22.41;100.00;98978.54;104955;1260;61359;-59
2023/07/28 08:30:15;;;;;;;;;;;;;;;22.40;100.00;98953.08;104972;1260;74628;-65
2023/07/28 08:32:42;;;;;;;;;;;;;;;22.39;100.00;98931.64;105096;1260;65532;-69
2023/07/28 08:35:09;;;;;;;;;;;;;;;22.37;100.00;98912.93;104927;1262;72347;-58
2023/07/28 08:37:36;;;;;;;;;;;;;;;22.37;100.00;98905.46;105538;1260;61801;-60
2023/07/28 08:40:04;;;;;;;;;;;;;;;22.40;100.00;98894.94;104943;1262;61234;-65
2023/07/28 08:42:35;;;;;;;;;;;;;;;22.54;100.00;98906.45;105012;1262;74602;-58
2023/07/28 08:45:04;;;;;;;;;;;;;;;22.73;100.00;98929.58;104966;1260;67262;-59
2023/07/28 08:47:32;;;;;;;;;;;;;;;22.87;100.00;98911.07;104743;1260;71482;-57
2023/07/28 08:49:59;;;;;;;;;;;;;;;23.03;100.00;98886.46;105160;1259;62039;-68
2023/07/28 08:52:26;;;;;;;;;;;;;;;23.17;100.00;98867.83;104896;1259;61317;-59
2023/07/28 08:54:53;;;;;;;;;;;;;;;23.35;100.00;98867.38;105050;1260;75263;-59
2023/07/28 08:57:20;;;;;;;;;;;;;;;23.57;100.00;98869.48;104873;1263;67271;-59
2023/07/28 08:59:48;;;;;;;;;;;;;;;23.76;100.00;98889.95;105306;1262;71322;-58
2023/07/28 09:02:18;;;;;;;;;;;;;;;24.04;100.00;98912.41;104750;1265;61361;-58
2023/07/28 09:04:45;;;;;;;;;;;;;;;24.31;100.00;98935.96;105108;1263;61160;-66
2023/07/28 09:07:12;;;;;;;;;;;;;;;24.53;100.00;98949.59;104887;1260;73224;-59
2023/07/28 09:09:43;;;;;;;;;;;;;;;24.82;100.00;98959.64;104974;1262;65794;-59
2023/07/28 09:12:10;;;;;;;;;;;;;;;25.11;100.00;98962.91;104865;1260;74527;-59
2023/07/28 09:14:37;;;;;;;;;;;;;;;25.18;100.00;98977.83;104869;1263;61251;-60
2023/07/28 09:17:08;;;;;;;;;;;;;;;25.15;100.00;98969.61;104970;1260;61250;-60
2023/07/28 09:19:34;;;;;;;;;;;;;;;25.14;100.00;98967.29;104922;1260;73817;-64
2023/07/28 09:22:01;;;;;;;;;;;;;;;25.18;100.00;98969.64;104732;1262;65941;-62
2023/07/28 09:24:32;;;;;;;;;;;;;;;25.29;100.00;98964.45;104798;1260;72191;-62
2023/07/28 09:26:59;;;;;;;;;;;;;;;25.53;100.00;98952.16;104926;1260;61707;-62
2023/07/28 09:29:29;;;;;;;;;;;;;;;25.78;100.00;98931.70;104947;1262;61248;-61
2023/07/28 09:32:03;;;;;;;;;;;;;;;26.12;100.00;98925.96;104868;1263;74126;-64
2023/07/28 09:34:29;;;;;;;;;;;;;;;26.37;100.00;98920.14;104951;1263;66512;-68
2023/07/28 09:36:57;;;;;;;;;;;;;;;26.47;100.00;98909.70;104597;1262;73178;-61
2023/07/28 09:39:24;;;;;;;;;;;;;;;26.43;100.00;98894.44;104807;1265;62056;-62
2023/07/28 09:41:50;;;;;;;;;;;;;;;26.35;100.00;98889.73;104837;1263;61244;-62
2023/07/28 09:44:17;;;;;;;;;;;;;;;26.27;100.00;98892.39;105156;1260;74441;-62
2023/07/28 09:46:51;;;;;;;;;;;;;;;26.29;100.00;98899.64;104953;1263;67188;-65
2023/07/28 09:49:22;;;;;;;;;;;;;;;26.40;100.00;98907.11;105257;1262;73159;-68
2023/07/28 09:51:49;;;;;;;;;;;;;;;26.48;100.00;98918.84;104705;1260;61330;-60
2023/07/28 09:54:19;;;;;;;;;;;;;;;26.35;100.00;98910.73;104929;1260;61270;-62
2023/07/28 09:56:46;;;;;;;;;;;;;;;26.27;100.00;98910.09;104867;1259;72918;-62
2023/07/28 09:59:13;;;;;;;;;;;;;;;26.26;100.00;98915.26;104895;1262;65926;-62
2023/07/28 10:01:40;;;;;;;;;;;;;;;26.29;100.00;98902.73;104800;1260;72079;-61
2023/07/28 10:04:07;;;;;;;;;;;;;;;26.38;100.00;98893.82;105048;1263;62320;-62
2023/07/28 10:06:34;;;;;;;;;;;;;;;26.47;100.00;98892.23;104594;1260;61255;-62
2023/07/28 10:09:01;;;;;;;;;;;;;;;26.61;100.00;98894.78;105229;1263;74755;-61
2023/07/28 10:11:29;;;;;;;;;;;;;;;26.82;100.00;98890.77;105142;1265;65774;-69
2023/07/28 10:13:55;;;;;;;;;;;;;;;27.08;100.00;98903.13;104877;1260;73231;-63
2023/07/28 10:16:41;;;;;;;;;;;;;;;27.30;100.00;98906.35;105073;1263;61234;-69
2023/07/28 10:19:07;;;;;;;;;;;;;;;27.50;100.00;98907.20;104812;1262;61340;-63
2023/07/28 10:21:39;;;;;;;;;;;;;;;27.54;100.00;98917.71;104852;1262;75182;-62
2023/07/28 10:24:05;;;;;;;;;;;;;;;27.55;100.00;98924.29;104903;1262;65959;-63
2023/07/28 10:26:36;;;;;;;;;;;;;;;27.61;100.00;98920.27;105274;1259;72570;-65
2023/07/28 10:29:14;;;;;;;;;;;;;;;27.65;100.00;98913.02;105253;1261;61968;-63
2023/07/28 10:31:49;;;;;;;;;;;;;;;27.57;100.00;98900.44;105491;1258;61161;-62
2023/07/28 10:34:17;;;;;;;;;;;;;;;27.52;100.00;98887.54;105085;1265;74769;-63
2023/07/28 10:36:44;;;;;;;;;;;;;;;27.52;100.00;98887.38;105297;1262;66328;-63
2023/07/28 10:39:14;;;;;;;;;;;;;;;27.56;100.00;98890.43;105244;1260;71256;-68
2023/07/28 10:41:59;;;;;;;;;;;;;;;27.56;100.00;98886.09;105454;1265;62056;-64
2023/07/28 10:44:27;;;;;;;;;;;;;;;27.52;100.00;98883.48;104936;1263;61216;-61
2023/07/28 10:46:53;;;;;;;;;;;;;;;27.47;100.00;98877.10;105148;1262;74575;-67
2023/07/28 10:49:20;;;;;;;;;;;;;;;27.39;100.00;98865.21;104620;1262;65645;-62
2023/07/28 10:51:47;;;;;;;;;;;;;;;27.36;100.00;98861.40;105444;1262;71431;-61
2023/07/28 10:54:16;;;;;;;;;;;;;;;27.45;100.00;98864.75;105013;1265;61202;-63
2023/07/28 10:56:43;;;;;;;;;;;;;;;27.61;100.00;98868.27;104881;1260;61217;-67
2023/07/28 10:59:10;;;;;;;;;;;;;;;27.80;100.00;98858.00;104547;1261;75183;-61
2023/07/28 11:01:37;;;;;;;;;;;;;;;27.94;100.00;98843.23;104937;1262;67149;-63
2023/07/28 11:04:11;;;;;;;;;;;;;;;27.97;100.00;98831.92;104934;1259;70972;-61
2023/07/28 11:06:40;;;;;;;;;;;;;;;27.85;100.00;98812.84;104917;1263;62046;-63
2023/07/28 11:09:07;;;;;;;;;;;;;;;27.61;100.00;98815.81;105190;1262;61254;-65
2023/07/28 11:11:35;;;;;;;;;;;;;;;27.31;100.00;98832.90;105249;1258;75186;-63
2023/07/28 11:14:04;;;;;;;;;;;;;;;27.01;100.00;98850.13;105283;1263;65975;-62
2023/07/28 11:16:32;;;;;;;;;;;;;;;26.72;100.00;98858.68;105506;1260;72946;-67
2023/07/28 11:19:03;;;;;;;;;;;;;;;26.52;100.00;98859.42;105486;1260;62659;-64
2023/07/28 11:21:31;;;;;;;;;;;;;;;26.40;100.00;98862.23;105393;1262;61296;-62
2023/07/28 11:23:57;;;;;;;;;;;;;;;26.28;100.00;98861.90;105122;1261;74620;-62
2023/07/28 11:26:24;;;;;;;;;;;;;;;26.17;100.00;98864.05;105539;1260;66941;-62
2023/07/28 11:28:54;;;;;;;;;;;;;;;26.15;100.00;98850.23;105189;1262;72593;-66
2023/07/28 11:31:25;;;;;;;;;;;;;;;26.25;100.00;98840.64;105317;1263;61276;-61
2023/07/28 11:33:55;;;;;;;;;;;;;;;26.32;100.00;98829.48;105727;1264;61263;-61
2023/07/28 11:36:24;;;;;;;;;;;;;;;26.33;100.00;98824.05;105225;1262;73662;-63
2023/07/28 11:38:51;;;;;;;;;;;;;;;26.32;100.00;98816.02;105544;1262;66032;-68
2023/07/28 11:41:18;;;;;;;;;;;;;;;26.30;100.00;98804.45;105030;1272;71467;-62
2023/07/28 11:43:48;;;;;;;;;;;;;;;26.27;100.00;98799.59;105301;1262;61919;-61
2023/07/28 11:46:34;;;;;;;;;;;;;;;26.27;100.00;98791.80;105515;1260;61289;-62
2023/07/28 11:49:22;;;;;;;;;;;;;;;26.31;100.00;98786.09;105302;1262;74724;-61
2023/07/28 11:51:52;;;;;;;;;;;;;;;26.37;100.00;98790.59;105184;1263;67047;-63
2023/07/28 11:54:21;;;;;;;;;;;;;;;26.42;100.00;98802.45;105426;1266;72889;-62
2023/07/28 11:56:49;;;;;;;;;;;;;;;26.39;100.00;98815.96;107069;1262;62266;-64
2023/07/28 11:59:16;;;;;;;;;;;;;;;26.32;100.00;98836.81;106309;1259;60024;-59
2023/07/28 12:01:58;;;;;;;;;;;;;;;26.26;100.00;98855.58;105300;1263;73428;-63
2023/07/28 12:04:28;;;;;;;;;;;;;;;25.89;100.00;98864.06;105216;1262;65908;-64
2023/07/28 12:07:12;;;;;;;;;;;;;;;25.21;100.00;98865.77;105119;1264;71475;-61
2023/07/28 12:09:45;;;;;;;;;;;;;;;24.49;100.00;98868.96;105323;1261;61860;-69
2023/07/28 12:12:12;;;;;;;;;;;;;;;23.97;100.00;98877.92;105227;1259;61304;-64
2023/07/28 12:14:51;;;;;;;;;;;;;;;23.64;100.00;98890.08;105274;1262;74803;-60
2023/07/28 12:17:39;;;;;;;;;;;;;;;23.43;100.00;98898.03;104958;1262;66057;-67
2023/07/28 12:20:14;;;;;;;;;;;;;;;23.29;100.00;98902.23;105267;1264;71525;-63
2023/07/28 12:22:41;;;;;;;;;;;;;;;23.16;100.00;98909.30;105186;1263;61343;-61
2023/07/28 12:25:08;;;;;;;;;;;;;;;23.10;100.00;98919.61;105408;1259;61254;-62
2023/07/28 12:27:35;;;;;;;;;;;;;;;23.07;100.00;98929.09;105465;1260;74358;-63
2023/07/28 12:30:02;;;;;;;;;;;;;;;23.04;100.00;98928.75;105059;1273;65473;-61
2023/07/28 12:32:31;;;;;;;;;;;;;;;23.11;100.00;98922.88;105176;1263;72783;-61